Time;durP1;ratioP1;P1;durP2;ratioP2;P2;SDS_P1;SDS_P2;PMS_P1;PMS_P2;Temp;Humidity;BMP_temperature;BMP_pressure;BME280_temperature;BME280_humidity;BME280_pressure;Samples;Min_cycle;Max_cycle;Signal;HPM_P1;HPM_P2
2023/05/19 00:01:15;;;;;;;13.63;6.28;;;;;;;17.50;100.00;100995.22;2097459;28;20489;-71
2023/05/19 00:02:38;;;;;;;15.88;5.18;;;;;;;17.50;100.00;100989.88;2102804;28;20497;-71
2023/05/19 00:04:02;;;;;;;17.98;6.32;;;;;;;17.49;100.00;100993.44;2088798;28;20041;-71
2023/05/19 00:05:23;;;;;;;14.73;5.65;;;;;;;17.45;100.00;100999.72;2109210;28;20448;-70
2023/05/19 00:06:50;;;;;;;16.27;5.63;;;;;;;17.43;100.00;100995.28;2098894;28;20581;-70
2023/05/19 00:08:16;;;;;;;17.73;5.63;;;;;;;17.39;100.00;101001.56;2087323;28;20131;-70
2023/05/19 00:09:39;;;;;;;17.90;5.97;;;;;;;17.35;100.00;100997.13;2109451;28;20043;-70
2023/05/19 00:11:01;;;;;;;16.48;5.32;;;;;;;17.32;100.00;101000.72;2085028;28;20087;-71
2023/05/19 00:12:24;;;;;;;17.05;6.35;;;;;;;17.30;100.00;100998.94;2109061;28;20067;-70
2023/05/19 00:13:48;;;;;;;18.88;5.25;;;;;;;17.29;100.00;100997.16;2091477;28;20056;-71
2023/05/19 00:15:12;;;;;;;17.30;4.90;;;;;;;17.28;100.00;101000.75;2095058;28;20056;-71
2023/05/19 00:16:36;;;;;;;17.58;5.40;;;;;;;17.24;100.00;101002.56;2097068;28;20044;-71
2023/05/19 00:17:59;;;;;;;19.85;5.88;;;;;;;17.21;100.00;100999.91;2097081;28;20496;-71
2023/05/19 00:19:20;;;;;;;17.08;5.88;;;;;;;17.15;100.00;100999.94;2106338;28;20068;-69
2023/05/19 00:20:43;;;;;;;16.70;5.15;;;;;;;17.12;100.00;101000.88;2093912;28;20078;-70
2023/05/19 00:22:05;;;;;;;14.52;5.50;;;;;;;17.12;100.00;100997.31;2086377;28;20049;-70
2023/05/19 00:23:28;;;;;;;18.10;5.60;;;;;;;17.13;100.00;100999.09;2092305;28;20155;-71
2023/05/19 00:24:51;;;;;;;19.75;6.15;;;;;;;17.13;100.00;101007.94;2093523;28;20064;-71
2023/05/19 00:26:12;;;;;;;16.80;5.25;;;;;;;17.15;100.00;101005.28;2086313;28;20045;-71
2023/05/19 00:27:41;;;;;;;18.60;5.47;;;;;;;17.14;100.00;100998.16;2087333;28;20493;-70
2023/05/19 00:29:02;;;;;;;17.52;5.20;;;;;;;17.14;100.00;100993.72;2078102;28;20534;-71
2023/05/19 00:30:25;;;;;;;15.98;5.07;;;;;;;17.14;100.00;100996.38;2090585;28;20044;-70
2023/05/19 00:31:47;;;;;;;19.95;6.07;;;;;;;17.15;100.00;100994.63;2097176;28;20405;-70
2023/05/19 00:33:09;;;;;;;17.23;6.05;;;;;;;17.14;100.00;100999.06;2078323;28;20042;-71
2023/05/19 00:34:31;;;;;;;17.90;5.38;;;;;;;17.13;100.00;100993.75;2090434;28;20052;-70
2023/05/19 00:35:53;;;;;;;14.55;4.85;;;;;;;17.12;100.00;101000.00;2090963;28;20463;-70
2023/05/19 00:37:15;;;;;;;15.60;4.53;;;;;;;17.12;100.00;100994.66;2094578;28;20032;-71
2023/05/19 00:38:38;;;;;;;12.65;5.10;;;;;;;17.07;100.00;101000.00;2092983;28;20460;-71
2023/05/19 00:40:01;;;;;;;10.65;5.07;;;;;;;17.03;100.00;100994.72;2078005;28;20038;-71
2023/05/19 00:41:22;;;;;;;16.17;5.30;;;;;;;17.03;100.00;100995.59;2091168;28;20049;-70
2023/05/19 00:42:44;;;;;;;12.25;5.35;;;;;;;17.03;100.00;100994.72;2086250;28;20048;-69
2023/05/19 00:44:07;;;;;;;14.90;5.68;;;;;;;17.03;100.00;100995.59;2092055;28;20059;-70
2023/05/19 00:45:28;;;;;;;16.77;5.60;;;;;;;17.02;100.00;100998.25;2094045;28;20056;-70
2023/05/19 00:46:50;;;;;;;17.80;5.57;;;;;;;16.99;100.00;100993.84;2094464;28;20055;-71
2023/05/19 00:48:13;;;;;;;14.23;5.50;;;;;;;16.98;100.00;100993.84;2111327;28;20040;-71
2023/05/19 00:49:35;;;;;;;21.25;5.78;;;;;;;16.96;100.00;100999.19;2099466;28;20068;-71
2023/05/19 00:51:02;;;;;;;13.73;6.00;;;;;;;16.95;100.00;101002.75;2110763;28;20503;-70
2023/05/19 00:52:25;;;;;;;16.55;5.45;;;;;;;16.95;100.00;100999.19;2082471;28;20077;-71
2023/05/19 00:53:50;;;;;;;15.27;5.45;;;;;;;16.92;100.00;100997.47;2086122;28;20049;-71
2023/05/19 00:55:14;;;;;;;14.50;5.05;;;;;;;16.92;100.00;100996.56;2102979;28;20094;-71
2023/05/19 00:56:36;;;;;;;16.00;5.43;;;;;;;16.90;100.00;101001.03;2083277;28;20048;-71
2023/05/19 00:57:59;;;;;;;12.23;4.88;;;;;;;16.86;100.00;101002.84;2100120;28;20435;-71
2023/05/19 00:59:21;;;;;;;17.75;5.80;;;;;;;16.83;100.00;101000.16;2082890;28;20041;-71
2023/05/19 01:00:44;;;;;;;12.95;5.32;;;;;;;16.81;100.00;101001.06;2099967;28;20044;-71
2023/05/19 01:02:06;;;;;;;14.38;5.95;;;;;;;16.81;100.00;101001.06;2091640;28;20045;-71
2023/05/19 01:03:31;;;;;;;13.35;5.28;;;;;;;16.79;100.00;101002.88;2090651;28;20798;-70
2023/05/19 01:04:55;;;;;;;15.77;5.63;;;;;;;16.76;100.00;100992.22;2097168;28;20053;-71
2023/05/19 01:06:17;;;;;;;15.32;5.88;;;;;;;16.76;100.00;100995.78;2088672;28;20037;-71
2023/05/19 01:07:41;;;;;;;13.85;5.55;;;;;;;16.77;100.00;100991.31;2088686;28;20508;-71
2023/05/19 01:09:05;;;;;;;17.55;5.85;;;;;;;16.77;100.00;100994.88;2109021;28;20079;-70
2023/05/19 01:10:28;;;;;;;16.25;5.78;;;;;;;16.77;100.00;100988.66;2085061;28;20164;-70
2023/05/19 01:11:49;;;;;;;20.73;5.90;;;;;;;16.77;100.00;101000.22;2089785;28;20048;-70
2023/05/19 01:13:12;;;;;;;16.42;5.35;;;;;;;16.76;100.00;100994.88;2080541;28;20052;-71
2023/05/19 01:14:33;;;;;;;15.05;5.22;;;;;;;16.76;100.00;100993.09;2093883;28;20081;-71
2023/05/19 01:16:05;;;;;;;15.40;6.10;;;;;;;16.77;100.00;100988.66;2083051;28;20108;-71
2023/05/19 01:17:35;;;;;;;13.07;5.50;;;;;;;16.73;100.00;100996.69;2102683;28;20511;-70
2023/05/19 01:19:04;;;;;;;15.40;5.10;;;;;;;16.70;100.00;101007.34;2088916;28;20063;-71
2023/05/19 01:20:33;;;;;;;20.05;5.80;;;;;;;16.69;100.00;101010.03;2083054;28;20810;-70
2023/05/19 01:22:21;;;;;;;14.20;5.43;;;;;;;16.65;100.00;101003.84;2080853;28;20502;-71
2023/05/19 01:23:53;;;;;;;14.35;5.50;;;;;;;16.64;100.00;101002.06;2100193;28;20259;-71
2023/05/19 01:25:45;;;;;;;14.05;4.75;;;;;;;16.62;100.00;101003.84;2095423;28;20105;-71
2023/05/19 01:27:16;;;;;;;;;;;;;;;16.58;100.00;101006.50;2089127;28;20634;-71
2023/05/19 01:29:17;;;;;;;18.95;5.97;;;;;;;16.57;100.00;101004.72;2110446;28;19920;-71
2023/05/19 01:30:41;;;;;;;15.35;5.50;;;;;;;16.56;100.00;100997.63;2080305;28;20375;-71
2023/05/19 01:32:07;;;;;;;14.32;4.80;;;;;;;16.56;100.00;101002.94;2075302;28;20509;-70
2023/05/19 01:33:31;;;;;;;18.20;5.72;;;;;;;16.55;100.00;101003.84;2092365;28;20078;-70
2023/05/19 01:34:55;;;;;;;14.98;5.82;;;;;;;16.48;100.00;101000.31;2085898;28;20103;-70
2023/05/19 01:36:18;;;;;;;20.58;6.07;;;;;;;16.44;100.00;101006.56;2101965;28;20040;-70
2023/05/19 01:37:44;;;;;;;;;;;;;;;16.39;100.00;100997.72;2087737;28;20048;-70
2023/05/19 01:39:06;;;;;;;17.77;5.68;;;;;;;16.32;100.00;100994.19;2083921;28;19928;-71
2023/05/19 01:40:29;;;;;;;15.75;5.47;;;;;;;16.32;100.00;101002.19;2082254;28;20106;-71
2023/05/19 01:41:54;;;;;;;20.30;6.68;;;;;;;16.34;100.00;101003.03;2088171;28;20096;-71
2023/05/19 01:43:19;;;;;;;15.80;5.38;;;;;;;16.38;100.00;101003.03;2085101;28;20053;-71
2023/05/19 01:44:42;;;;;;;17.33;5.18;;;;;;;16.38;100.00;101001.28;2102891;28;20048;-71
2023/05/19 01:46:05;;;;;;;14.95;5.20;;;;;;;16.38;100.00;101006.59;2082554;28;20076;-70
2023/05/19 01:47:28;;;;;;;17.95;5.50;;;;;;;16.36;100.00;101003.03;2088727;28;20093;-71
2023/05/19 01:48:50;;;;;;;13.27;5.70;;;;;;;16.33;100.00;100998.63;2085414;28;20417;-70
2023/05/19 01:50:12;;;;;;;15.07;5.97;;;;;;;16.32;100.00;101004.84;2079793;28;20204;-70
2023/05/19 01:51:35;;;;;;;16.08;5.20;;;;;;;16.30;100.00;100995.97;2083233;28;20048;-70
2023/05/19 01:52:57;;;;;;;14.73;5.53;;;;;;;16.29;100.00;100999.53;2083449;28;20056;-70
2023/05/19 01:54:19;;;;;;;15.85;5.03;;;;;;;16.27;100.00;101005.78;2093685;28;20037;-70
2023/05/19 01:55:44;;;;;;;20.13;5.93;;;;;;;16.25;100.00;101004.88;2084561;28;20045;-71
2023/05/19 01:57:13;;;;;;;15.77;5.45;;;;;;;16.23;100.00;101009.31;2092180;28;20049;-71
2023/05/19 01:58:44;;;;;;;12.82;4.53;;;;;;;16.20;100.00;101020.88;2085370;28;20253;-71
2023/05/19 02:00:14;;;;;;;14.32;5.25;;;;;;;16.17;100.00;101015.56;2093057;28;20944;-71
2023/05/19 02:01:52;;;;;;;15.63;5.78;;;;;;;16.20;100.00;101009.34;2088402;28;20498;-71
2023/05/19 02:03:25;;;;;;;18.70;5.40;;;;;;;16.21;100.00;101003.97;2084699;28;20378;-71
2023/05/19 02:04:54;;;;;;;16.33;5.28;;;;;;;16.24;100.00;101017.31;2085927;28;20421;-70
2023/05/19 02:06:28;;;;;;;14.52;5.22;;;;;;;16.27;100.00;101021.75;2084718;28;20084;-70
2023/05/19 02:07:54;;;;;;;17.10;5.63;;;;;;;16.28;100.00;101012.84;2103775;28;20048;-70
2023/05/19 02:09:23;;;;;;;21.13;6.25;;;;;;;16.29;100.00;101017.28;2086440;28;20047;-71
2023/05/19 02:10:54;;;;;;;16.40;5.65;;;;;;;16.28;100.00;101028.81;2092084;28;20441;-70
2023/05/19 02:12:24;;;;;;;15.07;5.47;;;;;;;16.27;100.00;101021.75;2080937;28;20173;-70
2023/05/19 02:13:49;;;;;;;15.15;4.97;;;;;;;16.27;100.00;101017.31;2104391;28;20047;-71
2023/05/19 02:15:16;;;;;;;16.25;5.53;;;;;;;16.28;100.00;101019.06;2085240;28;20091;-71
2023/05/19 02:16:45;;;;;;;17.15;5.43;;;;;;;16.30;100.00;101024.38;2084886;28;20537;-70
2023/05/19 02:18:08;;;;;;;14.98;5.60;;;;;;;16.28;100.00;101023.50;2094599;28;20489;-70
2023/05/19 02:19:32;;;;;;;16.98;5.38;;;;;;;16.28;100.00;101023.50;2092811;28;20576;-70
2023/05/19 02:20:54;;;;;;;15.57;5.45;;;;;;;16.28;100.00;101028.81;2084097;28;20041;-70
2023/05/19 02:22:16;;;;;;;12.45;4.50;;;;;;;16.28;100.00;101026.16;2082429;28;20403;-71
2023/05/19 02:23:37;;;;;;;18.58;5.43;;;;;;;16.26;100.00;101028.84;2082651;28;20053;-70
2023/05/19 02:25:00;;;;;;;17.45;5.40;;;;;;;16.26;100.00;101023.53;2081718;28;20048;-70
2023/05/19 02:26:21;;;;;;;15.95;5.40;;;;;;;16.24;100.00;101027.97;2083168;28;20041;-70
2023/05/19 02:27:44;;;;;;;16.13;4.95;;;;;;;16.22;100.00;101024.41;2090816;28;20068;-71
2023/05/19 02:29:05;;;;;;;13.77;5.40;;;;;;;16.21;100.00;101025.28;2088085;28;20045;-70
2023/05/19 02:30:30;;;;;;;20.15;5.43;;;;;;;16.21;100.00;101027.09;2089109;28;20374;-70
2023/05/19 02:31:56;;;;;;;13.32;5.00;;;;;;;16.21;100.00;101027.09;2077929;28;20096;-70
2023/05/19 02:33:19;;;;;;;17.90;5.45;;;;;;;16.19;100.00;101031.53;2098199;28;20051;-70
2023/05/19 02:34:44;;;;;;;15.68;5.45;;;;;;;16.17;100.00;101028.88;2082577;28;20680;-70
2023/05/19 02:36:08;;;;;;;19.35;5.82;;;;;;;16.18;100.00;101027.09;2091955;28;20146;-70
2023/05/19 02:37:31;;;;;;;13.05;5.50;;;;;;;16.17;100.00;101028.88;2081039;28;20076;-70
2023/05/19 02:38:53;;;;;;;18.38;5.97;;;;;;;16.14;100.00;101018.25;2091499;28;20048;-70
2023/05/19 02:40:15;;;;;;;22.92;6.43;;;;;;;16.13;100.00;101026.22;2102078;28;20037;-69
2023/05/19 02:41:37;;;;;;;14.98;5.70;;;;;;;16.12;100.00;101024.44;2096458;28;20037;-70
2023/05/19 02:43:00;;;;;;;17.27;6.00;;;;;;;16.13;100.00;101019.13;2102242;28;20089;-69
2023/05/19 02:44:22;;;;;;;20.70;5.78;;;;;;;16.12;100.00;101019.13;2087741;28;20052;-70
2023/05/19 02:45:46;;;;;;;17.55;6.68;;;;;;;16.11;100.00;101020.91;2083116;28;20103;-70
2023/05/19 02:47:10;;;;;;;16.25;6.53;;;;;;;16.11;100.00;101020.00;2108275;28;20039;-70
2023/05/19 02:48:32;;;;;;;18.55;5.78;;;;;;;16.11;100.00;101014.69;2098704;28;20044;-71
2023/05/19 02:49:54;;;;;;;17.80;6.75;;;;;;;16.12;100.00;101005.81;2104849;28;20036;-70
2023/05/19 02:51:16;;;;;;;16.80;5.80;;;;;;;16.12;100.00;101011.13;2096549;28;20148;-71
2023/05/19 02:52:38;;;;;;;20.33;5.82;;;;;;;16.12;100.00;101016.47;2101087;28;20538;-70
2023/05/19 02:53:59;;;;;;;15.20;5.75;;;;;;;16.09;100.00;101013.78;2096601;28;20475;-70
2023/05/19 02:55:22;;;;;;;23.63;7.07;;;;;;;16.08;100.00;101010.25;2087956;28;20057;-71
2023/05/19 02:56:43;;;;;;;17.90;5.90;;;;;;;16.08;100.00;101014.72;2101895;28;20066;-70
2023/05/19 02:58:05;;;;;;;20.30;6.32;;;;;;;16.08;100.00;101020.91;2098230;28;20664;-71
2023/05/19 02:59:27;;;;;;;18.42;5.60;;;;;;;16.09;100.00;101025.34;2102758;28;20040;-71
2023/05/19 03:00:50;;;;;;;16.40;6.20;;;;;;;16.08;100.00;101020.03;2087794;28;20060;-71
2023/05/19 03:02:14;;;;;;;18.20;6.10;;;;;;;16.07;100.00;101026.25;2085658;28;20037;-71
2023/05/19 03:03:35;;;;;;;19.42;5.90;;;;;;;16.07;100.00;101021.81;2102069;28;20184;-71
2023/05/19 03:05:00;;;;;;;19.70;6.20;;;;;;;16.05;100.00;101023.59;2090629;28;20068;-70
2023/05/19 03:06:22;;;;;;;19.70;6.43;;;;;;;16.03;100.00;101027.13;2097651;28;20479;-71
2023/05/19 03:07:44;;;;;;;22.52;6.28;;;;;;;16.02;100.00;101022.69;2096346;28;20518;-71
2023/05/19 03:09:06;;;;;;;19.63;7.10;;;;;;;16.01;100.00;101021.84;2087637;28;20049;-70
2023/05/19 03:10:28;;;;;;;17.42;6.78;;;;;;;16.02;100.00;101020.03;2086862;28;20045;-70
2023/05/19 03:11:50;;;;;;;17.20;6.57;;;;;;;16.02;100.00;101022.69;2090979;28;20988;-70
2023/05/19 03:13:12;;;;;;;17.55;6.05;;;;;;;16.02;100.00;101018.25;2079431;28;20072;-70
2023/05/19 03:14:36;;;;;;;14.48;5.80;;;;;;;16.03;100.00;101024.47;2078092;28;20111;-70
2023/05/19 03:15:58;;;;;;;15.13;5.72;;;;;;;16.03;100.00;101029.78;2081736;28;20036;-69
2023/05/19 03:17:21;;;;;;;21.33;5.93;;;;;;;16.05;100.00;101033.34;2098866;28;20048;-70
2023/05/19 03:18:43;;;;;;;19.52;6.25;;;;;;;16.06;100.00;101028.03;2083792;28;20107;-70
2023/05/19 03:20:06;;;;;;;17.20;5.82;;;;;;;16.03;100.00;101022.69;2081791;28;20517;-70
2023/05/19 03:21:30;;;;;;;13.60;5.60;;;;;;;16.02;100.00;101023.56;2074650;28;20047;-70
2023/05/19 03:22:53;;;;;;;13.30;5.40;;;;;;;16.02;100.00;101025.34;2085634;28;20056;-70
2023/05/19 03:24:14;;;;;;;18.27;5.95;;;;;;;16.02;100.00;101020.03;2077093;28;20449;-70
2023/05/19 03:25:37;;;;;;;;;;;;;;;16.03;100.00;101024.47;2077188;28;20073;-70
2023/05/19 03:26:59;;;;;;;;;;;;;;;16.06;100.00;101027.13;2091395;28;19946;-70
2023/05/19 03:28:23;;;;;;;12.50;5.57;;;;;;;16.10;100.00;101031.53;2096364;28;19924;-71
2023/05/19 03:29:44;;;;;;;15.52;5.07;;;;;;;16.14;100.00;101036.00;2105444;28;20047;-71
2023/05/19 03:31:06;;;;;;;15.10;5.53;;;;;;;16.13;100.00;101029.78;2099025;28;20060;-70
2023/05/19 03:32:36;;;;;;;19.20;6.63;;;;;;;16.12;100.00;101038.66;2084941;28;20076;-69
2023/05/19 03:33:59;;;;;;;20.27;6.13;;;;;;;16.12;100.00;101037.78;2083095;28;20064;-70
2023/05/19 03:35:20;;;;;;;15.60;5.43;;;;;;;16.17;100.00;101041.31;2081027;28;20592;-70
2023/05/19 03:36:43;;;;;;;17.50;5.97;;;;;;;16.23;100.00;101036.84;2086124;28;20055;-70
2023/05/19 03:38:09;;;;;;;16.98;5.78;;;;;;;16.29;100.00;101035.94;2094170;28;20053;-70
2023/05/19 03:39:32;;;;;;;15.50;5.07;;;;;;;16.33;100.00;101033.28;2085364;28;20425;-71
2023/05/19 03:40:53;;;;;;;17.35;5.32;;;;;;;16.38;100.00;101041.25;2087300;28;20073;-71
2023/05/19 03:42:16;;;;;;;16.48;5.78;;;;;;;16.43;100.00;101039.44;2094558;28;20468;-70
2023/05/19 03:43:37;;;;;;;14.27;5.10;;;;;;;16.44;100.00;101041.22;2082495;28;20077;-70
2023/05/19 03:45:02;;;;;;;17.17;5.13;;;;;;;16.45;100.00;101043.00;2091665;28;20043;-70
2023/05/19 03:46:25;;;;;;;15.05;5.97;;;;;;;16.50;100.00;101037.63;2084350;28;22070;-70
2023/05/19 03:48:03;;;;;;;14.35;5.15;;;;;;;16.55;100.00;101039.38;2086683;28;20052;-70
2023/05/19 03:49:43;;;;;;;13.52;5.10;;;;;;;16.61;100.00;101038.50;2088938;28;20045;-70
2023/05/19 03:51:27;;;;;;;12.80;5.25;;;;;;;16.65;100.00;101037.59;2096109;28;20094;-70
2023/05/19 03:52:52;;;;;;;15.20;5.57;;;;;;;16.69;100.00;101040.25;2079139;28;20042;-70
2023/05/19 03:54:37;;;;;;;14.85;5.47;;;;;;;16.74;100.00;101049.09;2089243;28;20057;-70
2023/05/19 03:56:00;;;;;;;15.10;6.20;;;;;;;16.77;100.00;101050.88;2093106;28;20446;-70
2023/05/19 03:57:22;;;;;;;17.27;5.65;;;;;;;16.80;100.00;101048.22;2086587;28;20667;-70
2023/05/19 03:58:45;;;;;;;15.48;5.80;;;;;;;16.84;100.00;101049.06;2100955;28;20097;-70
2023/05/19 04:00:09;;;;;;;16.83;5.38;;;;;;;16.86;100.00;101053.50;2085813;28;20089;-69
2023/05/19 04:01:35;;;;;;;17.88;5.90;;;;;;;16.88;100.00;101056.13;2089966;28;20052;-71
2023/05/19 04:02:56;;;;;;;17.98;5.53;;;;;;;16.91;100.00;101065.03;2085008;28;20119;-70
2023/05/19 04:04:20;;;;;;;14.32;5.80;;;;;;;16.95;100.00;101060.53;2100403;28;20097;-71
2023/05/19 04:05:42;;;;;;;17.65;5.35;;;;;;;16.98;100.00;101066.75;2097514;28;20052;-71
2023/05/19 04:07:04;;;;;;;19.27;5.72;;;;;;;17.02;100.00;101067.63;2108657;28;20388;-70
2023/05/19 04:08:25;;;;;;;18.23;6.10;;;;;;;17.03;100.00;101064.94;2088046;28;20420;-70
2023/05/19 04:09:47;;;;;;;18.20;5.63;;;;;;;17.03;100.00;101070.28;2089790;28;20048;-70
2023/05/19 04:11:09;;;;;;;15.95;5.60;;;;;;;17.04;100.00;101072.06;2094041;28;20044;-70
2023/05/19 04:12:31;;;;;;;19.35;5.45;;;;;;;17.06;100.00;101064.06;2084649;28;20107;-69
2023/05/19 04:13:54;;;;;;;19.08;5.40;;;;;;;17.10;100.00;101072.03;2081503;28;20072;-69
2023/05/19 04:15:16;;;;;;;16.35;4.70;;;;;;;17.14;100.00;101064.88;2070860;28;20034;-70
2023/05/19 04:16:38;;;;;;;20.33;5.18;;;;;;;17.19;100.00;101076.41;2076396;28;20120;-70
2023/05/19 04:18:00;;;;;;;16.98;4.97;;;;;;;17.22;100.00;101078.16;2082580;28;20037;-70
2023/05/19 04:19:23;;;;;;;13.57;4.85;;;;;;;17.25;100.00;101067.50;2080077;28;20106;-70
2023/05/19 04:20:45;;;;;;;16.23;4.90;;;;;;;17.26;100.00;101072.81;2075774;28;20048;-70
2023/05/19 04:22:06;;;;;;;16.38;5.40;;;;;;;17.29;100.00;101067.44;2083840;28;20057;-70
2023/05/19 04:23:29;;;;;;;16.77;4.95;;;;;;;17.36;100.00;101071.84;2078220;28;20045;-71
2023/05/19 04:24:51;;;;;;;16.40;5.60;;;;;;;17.42;100.00;101073.56;2083717;28;20107;-70
2023/05/19 04:26:13;;;;;;;15.18;5.30;;;;;;;17.46;100.00;101069.97;2090492;28;20055;-70
2023/05/19 04:27:37;;;;;;;18.30;5.43;;;;;;;17.50;100.00;101067.28;2087450;28;20163;-70
2023/05/19 04:29:03;;;;;;;14.93;4.82;;;;;;;17.56;100.00;101066.34;2086833;28;20049;-70
2023/05/19 04:30:25;;;;;;;13.60;4.93;;;;;;;17.62;100.00;101074.34;2084048;28;20045;-69
2023/05/19 04:31:47;;;;;;;15.27;4.68;;;;;;;17.67;100.00;101068.97;2086596;28;20053;-70
2023/05/19 04:33:10;;;;;;;17.83;5.47;;;;;;;17.72;100.00;101072.50;2092108;28;20056;-71
2023/05/19 04:34:34;;;;;;;12.70;5.43;;;;;;;17.75;100.00;101068.00;2083344;28;20045;-71
2023/05/19 04:35:57;;;;;;;14.85;5.00;;;;;;;17.80;100.00;101068.84;2089260;28;20572;-70
2023/05/19 04:37:20;;;;;;;17.73;5.40;;;;;;;17.85;100.00;101074.16;2083658;28;20064;-70
2023/05/19 04:38:41;;;;;;;17.00;5.35;;;;;;;17.89;100.00;101079.44;2086578;28;20049;-70
2023/05/19 04:40:09;;;;;;;15.82;5.22;;;;;;;17.93;100.00;101077.63;2086137;28;20041;-70
2023/05/19 04:41:33;;;;;;;14.50;5.80;;;;;;;18.02;100.00;101077.53;2085988;28;20067;-70
2023/05/19 04:42:56;;;;;;;15.40;5.55;;;;;;;18.10;100.00;101074.81;2088889;28;20041;-70
2023/05/19 04:44:20;;;;;;;12.13;4.90;;;;;;;18.16;100.00;101074.72;2083874;28;20060;-71
2023/05/19 04:45:45;;;;;;;15.02;5.00;;;;;;;18.20;100.00;101081.81;2091194;28;20067;-70
2023/05/19 04:47:08;;;;;;;13.65;5.63;;;;;;;18.24;100.00;101073.75;2086363;28;20099;-71
2023/05/19 04:48:29;;;;;;;14.02;5.05;;;;;;;18.28;100.00;101080.84;2094696;28;20051;-70
2023/05/19 04:49:54;;;;;;;29.90;6.03;;;;;;;18.30;100.00;101083.50;2085128;28;20492;-71
2023/05/19 04:51:16;;;;;;;21.55;6.20;;;;;;;18.31;100.00;101087.94;2085312;28;20049;-71
2023/05/19 04:52:40;;;;;;;16.27;6.22;;;;;;;18.34;100.00;101087.91;2075972;28;20061;-71
2023/05/19 04:54:02;;;;;;;22.83;7.47;;;;;;;18.35;100.00;101088.78;2075500;28;20086;-70
2023/05/19 04:55:24;;;;;;;14.85;6.45;;;;;;;18.36;100.00;101095.91;2103610;28;20046;-71
2023/05/19 04:56:46;;;;;;;13.43;5.53;;;;;;;18.38;100.00;101086.94;2091813;28;20493;-70
2023/05/19 04:58:09;;;;;;;18.25;6.13;;;;;;;18.43;100.00;101081.56;2102103;28;20048;-70
2023/05/19 04:59:30;;;;;;;22.65;5.85;;;;;;;18.52;100.00;101093.03;2091443;28;20045;-71
2023/05/19 05:00:54;;;;;;;18.55;6.15;;;;;;;18.61;100.00;101086.72;2095729;28;20516;-71
2023/05/19 05:02:17;;;;;;;20.02;5.93;;;;;;;18.74;100.00;101084.78;2080329;28;20037;-71
2023/05/19 05:03:39;;;;;;;17.80;5.75;;;;;;;18.86;100.00;101085.50;2098702;28;20494;-71
2023/05/19 05:05:04;;;;;;;21.80;6.63;;;;;;;18.96;100.00;101087.19;2088352;28;20049;-71
2023/05/19 05:06:27;;;;;;;22.67;6.07;;;;;;;19.03;100.00;101085.31;2075892;28;20077;-71
2023/05/19 05:07:48;;;;;;;19.60;6.35;;;;;;;19.09;100.00;101082.53;2078426;28;20555;-69
2023/05/19 05:09:12;;;;;;;25.88;7.00;;;;;;;19.13;100.00;101089.59;2083588;28;20263;-71
2023/05/19 05:10:33;;;;;;;19.80;5.75;;;;;;;19.16;100.00;101084.22;2086250;28;20049;-71
2023/05/19 05:11:56;;;;;;;20.63;6.45;;;;;;;19.21;100.00;101089.50;2094030;28;20366;-70
2023/05/19 05:13:22;;;;;;;22.40;6.90;;;;;;;19.25;100.00;101086.75;2086469;28;20052;-70
2023/05/19 05:14:44;;;;;;;19.45;7.20;;;;;;;19.30;100.00;101081.31;2084254;28;20493;-70
2023/05/19 05:16:08;;;;;;;18.35;5.95;;;;;;;19.36;100.00;101083.91;2082980;28;20472;-71
2023/05/19 05:17:29;;;;;;;19.23;6.32;;;;;;;19.42;100.00;101079.34;2081710;28;20053;-70
2023/05/19 05:18:53;;;;;;;28.17;6.68;;;;;;;19.45;100.00;101079.28;2083231;28;20689;-70
2023/05/19 05:20:18;;;;;;;19.20;6.03;;;;;;;19.50;100.00;101082.81;2090225;28;20160;-70
2023/05/19 05:21:42;;;;;;;23.52;7.82;;;;;;;19.56;100.00;101078.28;2081893;28;20460;-71
2023/05/19 05:23:05;;;;;;;27.27;7.55;;;;;;;19.62;100.00;101072.81;2077233;28;21675;-71
2023/05/19 05:24:30;;;;;;;21.52;7.45;;;;;;;19.66;100.00;101086.13;2075643;28;20037;-70
2023/05/19 05:25:55;;;;;;;22.30;6.18;;;;;;;19.70;100.00;101081.59;2095380;28;20107;-69
2023/05/19 05:27:18;;;;;;;25.42;7.53;;;;;;;19.74;100.00;101086.00;2085939;28;20048;-71
2023/05/19 05:28:40;;;;;;;26.60;6.85;;;;;;;19.76;100.00;101084.16;2081314;28;20075;-70
2023/05/19 05:30:04;;;;;;;18.85;6.95;;;;;;;19.74;100.00;101084.22;2099071;28;20044;-71
2023/05/19 05:31:26;;;;;;;23.98;7.18;;;;;;;19.78;100.00;101091.28;2081992;28;20076;-70
2023/05/19 05:32:49;;;;;;;21.48;6.93;;;;;;;19.82;100.00;101090.31;2077940;28;20538;-71
2023/05/19 05:34:25;;;;;;;23.00;7.00;;;;;;;19.85;100.00;101094.75;2071187;28;20045;-70
2023/05/19 05:35:50;;;;;;;21.35;6.30;;;;;;;19.88;100.00;101090.22;2074693;28;20088;-70
2023/05/19 05:37:12;;;;;;;25.48;6.80;;;;;;;19.95;100.00;101092.81;2075590;28;20049;-71
2023/05/19 05:38:35;;;;;;;22.70;6.88;;;;;;;20.02;100.00;101095.31;2075259;28;20042;-70
2023/05/19 05:39:57;;;;;;;19.00;6.55;;;;;;;20.19;100.00;101095.03;2091057;28;20438;-71
2023/05/19 05:41:20;;;;;;;28.88;6.43;;;;;;;20.31;100.00;101089.44;2080534;28;20061;-71
2023/05/19 05:42:45;;;;;;;24.90;6.68;;;;;;;20.60;100.00;101089.78;2094672;28;20067;-71
2023/05/19 05:44:06;;;;;;;20.83;5.97;;;;;;;20.99;100.00;101087.19;2088555;28;20049;-71
2023/05/19 05:45:29;;;;;;;18.17;5.43;;;;;;;21.34;100.00;101089.97;2102548;28;20059;-71
2023/05/19 05:46:53;;;;;;;18.25;4.65;;;;;;;21.50;100.00;101087.81;2088449;28;20127;-71
2023/05/19 05:48:16;;;;;;;20.88;5.50;;;;;;;21.51;100.00;101091.38;2094108;28;20886;-71
2023/05/19 05:49:39;;;;;;;16.20;4.80;;;;;;;21.50;100.00;101090.50;2080290;28;20530;-71
2023/05/19 05:51:04;;;;;;;19.77;5.15;;;;;;;21.48;100.00;101097.69;2081266;28;20536;-71
2023/05/19 05:52:30;;;;;;;17.30;5.15;;;;;;;21.37;100.00;101091.72;2100031;28;20077;-71
2023/05/19 05:53:55;;;;;;;22.40;6.20;;;;;;;21.24;100.00;101101.84;2083860;28;20076;-71
2023/05/19 05:55:26;;;;;;;19.98;5.40;;;;;;;21.16;100.00;101105.63;2085567;28;20045;-71
2023/05/19 05:56:50;;;;;;;19.85;5.75;;;;;;;21.22;100.00;101105.47;2083087;28;20100;-71
2023/05/19 05:58:13;;;;;;;15.65;5.40;;;;;;;21.27;100.00;101108.94;2080549;28;20394;-71
2023/05/19 05:59:36;;;;;;;23.23;5.75;;;;;;;21.43;100.00;101105.88;2091624;28;20170;-70
2023/05/19 06:00:58;;;;;;;15.93;5.15;;;;;;;21.73;100.00;101108.72;2104533;28;20117;-71
2023/05/19 06:02:21;;;;;;;21.70;5.13;;;;;;;21.95;100.00;101109.97;2088403;28;20049;-71
2023/05/19 06:03:44;;;;;;;18.60;4.85;;;;;;;22.01;100.00;101108.94;2083268;28;20049;-71
2023/05/19 06:05:11;;;;;;;20.25;5.15;;;;;;;21.94;100.00;101115.38;2102441;28;20048;-71
2023/05/19 06:06:36;;;;;;;18.73;5.55;;;;;;;21.84;100.00;101106.69;2080773;28;20049;-71
2023/05/19 06:08:00;;;;;;;14.90;4.47;;;;;;;21.90;100.00;101108.31;2091696;28;20047;-71
2023/05/19 06:09:23;;;;;;;17.25;5.32;;;;;;;21.85;100.00;101106.66;2085265;28;20048;-72
2023/05/19 06:10:46;;;;;;;20.52;5.38;;;;;;;21.81;100.00;101102.25;2085729;28;20706;-71
2023/05/19 06:12:08;;;;;;;19.05;5.82;;;;;;;21.83;100.00;101099.53;2082996;28;20075;-70
2023/05/19 06:13:36;;;;;;;20.77;4.97;;;;;;;21.82;100.00;101103.13;2086227;28;20087;-71
2023/05/19 06:15:02;;;;;;;24.33;5.70;;;;;;;21.75;100.00;101110.47;2077531;28;20045;-71
2023/05/19 06:16:53;;;;;;;21.55;6.20;;;;;;;21.71;100.00;101105.22;2092468;28;20049;-70
2023/05/19 06:18:16;;;;;;;19.92;5.50;;;;;;;21.87;100.00;101099.41;2102418;28;20105;-71
2023/05/19 06:19:38;;;;;;;22.73;5.18;;;;;;;22.00;100.00;101110.75;2088070;28;20052;-72
2023/05/19 06:21:02;;;;;;;23.80;5.50;;;;;;;21.95;100.00;101104.59;2099727;28;20094;-71
2023/05/19 06:22:26;;;;;;;18.80;5.45;;;;;;;21.79;100.00;101104.09;2088064;28;20052;-70
2023/05/19 06:23:49;;;;;;;18.45;5.60;;;;;;;21.69;100.00;101105.25;2079408;28;20048;-72